Date,TemperatureHighF,TemperatureAvgF,TemperatureLowF,DewpointHighF,DewpointAvgF,DewpointLowF,HumidityHigh,HumidityAvg,HumidityLow,PressureMaxIn,PressureMinIn,WindSpeedMaxMPH,WindSpeedAvgMPH,GustSpeedMaxMPH,PrecipitationSumIn
2013-8-1,83.8,70.9,62.6,74.8,67.7,62.4,99,90,67,30.18,29.94,9,2,0,0.00
2013-8-2,85.5,76.0,62.4,75.9,69.0,60.3,99,81,54,30.00,29.85,11,1,0,0.00
2013-8-3,82.9,69.8,63.7,75.4,66.4,60.3,99,90,64,30.00,29.84,12,1,0,0.00
2013-8-4,84.6,71.8,59.4,73.6,63.2,32.0,99,75,52,30.02,29.83,8,1,0,0.00
2013-8-5,80.2,62.7,54.9,60.3,54.5,32.0,99,77,41,30.16,29.90,11,1,0,0.00
2013-8-6,88.7,68.4,51.3,68.2,58.3,50.0,99,73,46,30.30,30.08,7,1,0,0.00
2013-8-7,85.3,70.0,56.1,68.0,61.5,55.8,99,77,46,30.38,30.17,8,2,0,0.00
2013-8-8,82.0,71.3,64.4,78.6,69.5,60.8,99,94,84,30.24,30.07,8,2,0,0.00
2013-8-9,73.9,72.2,71.2,73.8,72.0,70.9,99,99,98,30.15,29.85,10,2,0,0.00
2013-8-10,86.4,73.4,63.3,75.2,67.5,55.2,99,83,59,30.15,29.85,7,1,0,0.00
2013-8-11,83.8,67.2,54.5,72.3,60.7,54.1,99,81,54,32.31,30.05,3,1,0,0.00
2013-8-12,87.3,71.1,59.2,73.8,64.6,58.5,99,82,54,30.17,29.98,4,1,0,0.00
2013-8-13,82.9,70.6,65.7,77.5,69.2,32.0,99,96,78,30.05,29.75,4,1,0,0.00
2013-8-14,76.3,64.3,57.7,67.1,59.1,32.0,99,84,58,30.07,29.72,10,1,0,0.00
2013-8-15,75.4,59.7,54.5,61.7,55.3,51.1,99,86,56,30.27,30.00,4,1,0,0.00
2013-8-16,85.6,73.2,59.4,72.0,63.6,58.3,98,73,52,30.29,30.16,3,1,0,0.00
2013-8-17,89.1,72.2,56.8,76.1,64.8,56.1,99,79,53,30.43,29.99,5,1,0,0.00
2013-8-18,82.6,70.3,59.0,73.9,66.9,58.3,99,90,66,30.40,30.15,4,0,0,0.00
2013-8-19,84.0,71.8,61.3,72.9,66.3,59.2,99,84,57,30.21,30.03,7,1,0,0.00
2013-8-20,92.1,76.2,63.7,81.0,69.0,60.8,99,80,51,30.25,30.02,6,1,0,0.00
2013-8-21,91.6,77.2,63.1,79.5,70.9,62.2,99,83,58,30.29,30.09,6,1,0,0.00
2013-8-22,90.0,77.2,65.5,80.6,73.1,65.1,99,88,58,30.17,29.90,9,1,0,0.00
2013-8-23,86.7,73.6,63.1,72.7,64.1,53.4,99,74,48,30.24,29.87,9,1,0,0.00
2013-8-24,88.9,67.7,54.5,67.1,57.3,50.5,99,73,38,30.44,30.21,7,1,0,0.00
2013-8-25,86.4,69.4,52.5,68.4,60.2,52.0,99,76,44,30.49,30.24,9,1,0,0.00
2013-8-26,80.2,71.5,63.7,76.8,68.1,58.6,99,89,69,30.30,29.95,10,1,0,0.00
2013-8-27,94.8,77.7,68.2,82.0,73.4,66.9,99,88,60,30.01,29.87,6,1,0,0.00
2013-8-28,91.0,73.8,64.2,81.7,71.1,63.9,99,88,61,30.09,29.91,6,1,0,0.00
2013-8-29,69.4,65.8,61.2,69.3,64.8,59.0,99,96,89,30.21,29.96,9,1,0,0.00
2013-8-30,88.3,71.7,57.2,79.9,68.7,56.7,99,91,68,30.18,29.89,5,1,0,0.00
2013-8-31,82.9,74.7,68.4,80.4,74.1,66.7,99,98,88,30.04,29.83,6,1,0,0.00